AWW69TG EGFF-LFMN
Flight info
| Callsign | AWW69TG |
|---|---|
| Flight time | 1h 58m |
| Altitude | 35000 |
| Route | LEKCI P4 HAWFA DCT NUCHU L607 ALHAD UN859 VAPID L18 MID UL612 RESMI DCT KOTAP UM728 KETEX DCT KOTIS DCT KUKOR DCT UTUVA DCT LERGA DCT LIQID DCT LATAM DCT TUNUR DCT NISAR |
| Aircraft | A319/M-SDE3FGHIRWY/LB1 |
Departure
| Time | 2026-05-08 06:54 |
|---|---|
| Airport | Cardiff International Airport (EGFF) |
Arrival
| Time | 2026-05-08 08:52 |
|---|---|
| Airport | Nice-Côte d'Azur Airport (LFMN) |
| Time | Latitude | Longitude | Altitude | Speed | Heading |
|---|---|---|---|---|---|
| 2026-05-08 06:40 | 51.39837 | -3.34064 | 223 ft | 0 kts | 81° |
| 2026-05-08 06:46 | 51.39834 | -3.34093 | 223 ft | 4 kts | 83° |
| 2026-05-08 06:47 | 51.39831 | -3.34135 | 224 ft | 4 kts | 81° |
| 2026-05-08 06:47 | 51.39828 | -3.34177 | 225 ft | 4 kts | 84° |
| 2026-05-08 06:47 | 51.39824 | -3.34220 | 225 ft | 4 kts | 83° |
| 2026-05-08 06:47 | 51.39825 | -3.34260 | 226 ft | 3 kts | 115° |
| 2026-05-08 06:48 | 51.39826 | -3.34264 | 225 ft | 0 kts | 117° |
| 2026-05-08 06:49 | 51.39815 | -3.34232 | 228 ft | 7 kts | 117° |
| 2026-05-08 06:50 | 51.39782 | -3.34125 | 224 ft | 14 kts | 116° |
| 2026-05-08 06:50 | 51.39744 | -3.34001 | 221 ft | 11 kts | 116° |
| 2026-05-08 06:50 | 51.39706 | -3.33883 | 221 ft | 12 kts | 117° |
| 2026-05-08 06:50 | 51.39664 | -3.33751 | 219 ft | 14 kts | 117° |
| 2026-05-08 06:51 | 51.39618 | -3.33606 | 224 ft | 14 kts | 117° |
| 2026-05-08 06:51 | 51.39576 | -3.33471 | 220 ft | 14 kts | 117° |
| 2026-05-08 06:51 | 51.39531 | -3.33330 | 224 ft | 14 kts | 117° |
| 2026-05-08 06:51 | 51.39490 | -3.33198 | 222 ft | 13 kts | 116° |
| 2026-05-08 06:52 | 51.39442 | -3.33070 | 221 ft | 15 kts | 130° |
| 2026-05-08 06:52 | 51.39370 | -3.32953 | 221 ft | 15 kts | 135° |
| 2026-05-08 06:52 | 51.39288 | -3.32829 | 217 ft | 17 kts | 137° |
| 2026-05-08 06:52 | 51.39215 | -3.32807 | 220 ft | 10 kts | 211° |
| 2026-05-08 06:53 | 51.39206 | -3.32895 | 222 ft | 9 kts | 296° |
| 2026-05-08 06:53 | 51.39253 | -3.33038 | 223 ft | 37 kts | 297° |
| 2026-05-08 06:53 | 51.39487 | -3.33779 | 223 ft | 109 kts | 297° |
| 2026-05-08 06:53 | 51.39921 | -3.35140 | 261 ft | 159 kts | 297° |
| 2026-05-08 06:54 | 51.40416 | -3.36748 | 799 ft | 163 kts | 297° |
| 2026-05-08 06:54 | 51.40896 | -3.38426 | 1425 ft | 168 kts | 295° |
| 2026-05-08 06:54 | 51.41769 | -3.39536 | 1985 ft | 169 kts | 352° |
| 2026-05-08 06:54 | 51.42845 | -3.38999 | 2452 ft | 166 kts | 52° |
| 2026-05-08 06:55 | 51.43327 | -3.37412 | 3104 ft | 156 kts | 75° |
| 2026-05-08 06:55 | 51.43696 | -3.35643 | 3379 ft | 185 kts | 77° |
| 2026-05-08 06:55 | 51.44063 | -3.33468 | 3608 ft | 216 kts | 82° |
| 2026-05-08 06:55 | 51.44471 | -3.31012 | 4040 ft | 243 kts | 69° |
| 2026-05-08 06:56 | 51.45303 | -3.28488 | 4528 ft | 268 kts | 62° |
| 2026-05-08 06:56 | 51.46257 | -3.25855 | 5368 ft | 275 kts | 62° |
| 2026-05-08 06:56 | 51.47196 | -3.23266 | 6367 ft | 272 kts | 62° |
| 2026-05-08 06:56 | 51.48149 | -3.20642 | 7298 ft | 273 kts | 63° |
| 2026-05-08 06:57 | 51.49052 | -3.17970 | 8284 ft | 272 kts | 65° |
| 2026-05-08 06:57 | 51.49919 | -3.15255 | 9217 ft | 274 kts | 66° |
| 2026-05-08 06:57 | 51.50746 | -3.12499 | 10153 ft | 274 kts | 68° |
| 2026-05-08 06:57 | 51.51536 | -3.09732 | 11080 ft | 271 kts | 68° |
| 2026-05-08 06:58 | 51.52316 | -3.07007 | 12029 ft | 267 kts | 68° |
| 2026-05-08 06:58 | 51.52838 | -3.05151 | 12689 ft | 264 kts | 68° |
| 2026-05-08 06:58 | 51.53279 | -3.03570 | 13249 ft | 261 kts | 68° |
| 2026-05-08 06:58 | 51.54037 | -3.01002 | 14264 ft | 247 kts | 66° |
| 2026-05-08 06:59 | 51.54802 | -2.98502 | 14868 ft | 252 kts | 65° |
| 2026-05-08 06:59 | 51.55584 | -2.95966 | 15444 ft | 255 kts | 65° |
| 2026-05-08 06:59 | 51.56286 | -2.93342 | 16048 ft | 256 kts | 73° |
| 2026-05-08 06:59 | 51.56749 | -2.90580 | 16660 ft | 257 kts | 82° |
| 2026-05-08 07:00 | 51.56967 | -2.87734 | 17265 ft | 257 kts | 90° |
| 2026-05-08 07:00 | 51.56936 | -2.84862 | 17886 ft | 258 kts | 98° |
| 2026-05-08 07:00 | 51.56663 | -2.82056 | 18452 ft | 258 kts | 107° |
| 2026-05-08 07:00 | 51.56198 | -2.79263 | 18951 ft | 260 kts | 108° |
| 2026-05-08 07:01 | 51.55719 | -2.76450 | 19477 ft | 262 kts | 108° |
| 2026-05-08 07:01 | 51.55241 | -2.73617 | 20005 ft | 264 kts | 108° |
| 2026-05-08 07:01 | 51.54762 | -2.70763 | 20529 ft | 266 kts | 108° |
| 2026-05-08 07:01 | 51.54278 | -2.67884 | 21054 ft | 268 kts | 107° |
| 2026-05-08 07:02 | 51.53795 | -2.64991 | 21598 ft | 269 kts | 105° |
| 2026-05-08 07:02 | 51.53460 | -2.62017 | 22132 ft | 272 kts | 98° |
| 2026-05-08 07:02 | 51.53267 | -2.58981 | 22646 ft | 274 kts | 98° |
| 2026-05-08 07:02 | 51.53066 | -2.55920 | 23159 ft | 276 kts | 98° |
| 2026-05-08 07:03 | 51.52863 | -2.52885 | 23648 ft | 279 kts | 98° |
| 2026-05-08 07:03 | 51.52647 | -2.49672 | 23664 ft | 300 kts | 98° |
| 2026-05-08 07:03 | 51.52413 | -2.46219 | 23671 ft | 321 kts | 98° |
| 2026-05-08 07:03 | 51.52164 | -2.42543 | 23674 ft | 342 kts | 97° |
| 2026-05-08 07:04 | 51.51902 | -2.38641 | 23675 ft | 362 kts | 97° |
| 2026-05-08 07:04 | 51.51625 | -2.34519 | 23675 ft | 380 kts | 97° |
| 2026-05-08 07:04 | 51.51335 | -2.30202 | 23678 ft | 396 kts | 97° |
| 2026-05-08 07:04 | 51.51033 | -2.25767 | 23679 ft | 402 kts | 97° |
| 2026-05-08 07:05 | 51.50727 | -2.21299 | 23685 ft | 403 kts | 97° |
| 2026-05-08 07:05 | 51.50421 | -2.16826 | 23682 ft | 403 kts | 97° |
| 2026-05-08 07:05 | 51.50118 | -2.12416 | 23683 ft | 404 kts | 97° |
| 2026-05-08 07:05 | 51.49806 | -2.07938 | 23691 ft | 404 kts | 97° |
| 2026-05-08 07:06 | 51.49490 | -2.03446 | 23922 ft | 407 kts | 97° |
| 2026-05-08 07:06 | 51.49166 | -1.98920 | 24393 ft | 410 kts | 97° |
| 2026-05-08 07:06 | 51.48837 | -1.94365 | 24810 ft | 413 kts | 97° |
| 2026-05-08 07:06 | 51.48505 | -1.89769 | 25213 ft | 417 kts | 97° |
| 2026-05-08 07:07 | 51.48170 | -1.85131 | 25619 ft | 420 kts | 97° |
| 2026-05-08 07:07 | 51.47832 | -1.80463 | 26022 ft | 423 kts | 97° |
| 2026-05-08 07:07 | 51.47495 | -1.75827 | 26412 ft | 426 kts | 97° |
| 2026-05-08 07:07 | 51.47148 | -1.71104 | 26806 ft | 428 kts | 97° |
| 2026-05-08 07:08 | 51.46721 | -1.66359 | 27201 ft | 431 kts | 102° |
| 2026-05-08 07:08 | 51.46078 | -1.61640 | 27605 ft | 434 kts | 102° |
| 2026-05-08 07:08 | 51.45428 | -1.56900 | 27995 ft | 437 kts | 102° |
| 2026-05-08 07:08 | 51.44774 | -1.52126 | 28384 ft | 440 kts | 102° |
| 2026-05-08 07:09 | 51.44114 | -1.47311 | 28759 ft | 443 kts | 102° |
| 2026-05-08 07:09 | 51.43451 | -1.42466 | 29124 ft | 446 kts | 103° |
| 2026-05-08 07:09 | 51.42786 | -1.37606 | 29551 ft | 447 kts | 103° |
| 2026-05-08 07:09 | 51.42114 | -1.32731 | 29928 ft | 450 kts | 103° |
| 2026-05-08 07:10 | 51.41430 | -1.27895 | 30258 ft | 452 kts | 105° |
| 2026-05-08 07:10 | 51.40375 | -1.23153 | 30534 ft | 453 kts | 116° |
| 2026-05-08 07:10 | 51.38813 | -1.18772 | 30800 ft | 455 kts | 126° |
| 2026-05-08 07:10 | 51.36787 | -1.14885 | 31066 ft | 455 kts | 136° |
| 2026-05-08 07:11 | 51.34366 | -1.11620 | 31337 ft | 456 kts | 147° |
| 2026-05-08 07:11 | 51.31628 | -1.09083 | 31609 ft | 455 kts | 156° |
| 2026-05-08 07:11 | 51.28766 | -1.06904 | 31974 ft | 456 kts | 153° |
| 2026-05-08 07:11 | 51.26108 | -1.04127 | 32323 ft | 458 kts | 143° |
| 2026-05-08 07:12 | 51.23745 | -1.00698 | 32659 ft | 461 kts | 134° |
| 2026-05-08 07:12 | 51.21717 | -0.96734 | 32995 ft | 462 kts | 128° |
| 2026-05-08 07:12 | 51.19812 | -0.92690 | 33371 ft | 461 kts | 128° |
| 2026-05-08 07:12 | 51.17888 | -0.88629 | 33871 ft | 458 kts | 128° |
| 2026-05-08 07:13 | 51.15965 | -0.84584 | 34243 ft | 458 kts | 128° |
| 2026-05-08 07:13 | 51.14040 | -0.80550 | 34533 ft | 458 kts | 128° |
| 2026-05-08 07:13 | 51.12108 | -0.76509 | 34808 ft | 458 kts | 128° |
| 2026-05-08 07:13 | 51.10178 | -0.72477 | 35030 ft | 459 kts | 129° |
| 2026-05-08 07:14 | 51.06273 | -0.64540 | 35084 ft | 452 kts | 134° |
| 2026-05-08 07:14 | 51.01452 | -0.58291 | 35085 ft | 447 kts | 148° |
| 2026-05-08 07:15 | 50.96321 | -0.52836 | 35083 ft | 447 kts | 148° |
| 2026-05-08 07:15 | 50.91157 | -0.47329 | 35084 ft | 447 kts | 148° |
| 2026-05-08 07:16 | 50.85993 | -0.41837 | 35074 ft | 447 kts | 148° |
| 2026-05-08 07:16 | 50.80838 | -0.36378 | 35087 ft | 455 kts | 148° |
| 2026-05-08 07:17 | 50.76374 | -0.31672 | 35085 ft | 465 kts | 148° |
| 2026-05-08 07:17 | 50.70082 | -0.25059 | 35085 ft | 468 kts | 148° |
| 2026-05-08 07:18 | 50.64659 | -0.19357 | 35078 ft | 469 kts | 148° |
| 2026-05-08 07:18 | 50.59215 | -0.13653 | 35084 ft | 470 kts | 148° |
| 2026-05-08 07:19 | 50.53795 | -0.07998 | 35079 ft | 471 kts | 148° |
| 2026-05-08 07:19 | 50.48340 | -0.02314 | 35076 ft | 471 kts | 148° |
| 2026-05-08 07:20 | 50.42877 | 0.03352 | 35094 ft | 470 kts | 148° |
| 2026-05-08 07:20 | 50.37424 | 0.08992 | 35085 ft | 469 kts | 149° |
| 2026-05-08 07:21 | 50.32011 | 0.14589 | 35086 ft | 469 kts | 149° |
| 2026-05-08 07:21 | 50.26563 | 0.20206 | 35091 ft | 469 kts | 149° |
| 2026-05-08 07:22 | 50.21107 | 0.25796 | 35088 ft | 469 kts | 149° |
| 2026-05-08 07:22 | 50.15647 | 0.31387 | 35074 ft | 469 kts | 149° |
| 2026-05-08 07:23 | 50.10194 | 0.37001 | 35069 ft | 470 kts | 149° |
| 2026-05-08 07:23 | 50.04768 | 0.42583 | 35071 ft | 471 kts | 149° |
| 2026-05-08 07:24 | 49.99293 | 0.48167 | 35087 ft | 470 kts | 149° |
| 2026-05-08 07:24 | 49.93821 | 0.53722 | 35074 ft | 470 kts | 149° |
| 2026-05-08 07:25 | 49.88348 | 0.59272 | 35079 ft | 470 kts | 149° |
| 2026-05-08 07:26 | 49.80532 | 0.68481 | 35076 ft | 472 kts | 143° |
| 2026-05-08 07:26 | 49.75474 | 0.74844 | 35079 ft | 472 kts | 143° |
| 2026-05-08 07:27 | 49.70366 | 0.81227 | 35064 ft | 472 kts | 143° |
| 2026-05-08 07:27 | 49.65256 | 0.87617 | 35068 ft | 473 kts | 143° |
| 2026-05-08 07:28 | 49.60147 | 0.93998 | 35073 ft | 472 kts | 144° |
| 2026-05-08 07:28 | 49.55077 | 1.00327 | 35084 ft | 472 kts | 144° |
| 2026-05-08 07:29 | 49.49976 | 1.06656 | 35070 ft | 471 kts | 144° |
| 2026-05-08 07:29 | 49.44855 | 1.12976 | 35070 ft | 472 kts | 144° |
| 2026-05-08 07:30 | 49.39739 | 1.19290 | 35067 ft | 472 kts | 144° |
| 2026-05-08 07:30 | 49.34613 | 1.25601 | 35071 ft | 472 kts | 144° |
| 2026-05-08 07:31 | 49.29512 | 1.31852 | 35066 ft | 473 kts | 144° |
| 2026-05-08 07:31 | 49.24374 | 1.38132 | 35065 ft | 472 kts | 144° |
| 2026-05-08 07:32 | 49.19238 | 1.44408 | 35074 ft | 472 kts | 144° |
| 2026-05-08 07:32 | 49.14106 | 1.50665 | 35074 ft | 472 kts | 144° |
| 2026-05-08 07:33 | 49.09006 | 1.56857 | 35072 ft | 472 kts | 144° |
| 2026-05-08 07:33 | 49.03869 | 1.63068 | 35053 ft | 472 kts | 144° |
| 2026-05-08 07:34 | 48.98717 | 1.69276 | 35055 ft | 472 kts | 144° |
| 2026-05-08 07:34 | 48.93561 | 1.75483 | 35054 ft | 473 kts | 144° |
| 2026-05-08 07:35 | 48.88403 | 1.81684 | 35067 ft | 472 kts | 144° |
| 2026-05-08 07:35 | 48.83287 | 1.87820 | 35080 ft | 472 kts | 144° |
| 2026-05-08 07:36 | 48.78130 | 1.93974 | 35083 ft | 471 kts | 144° |
| 2026-05-08 07:36 | 48.72975 | 2.00110 | 35084 ft | 471 kts | 144° |
| 2026-05-08 07:37 | 48.67813 | 2.06228 | 35085 ft | 471 kts | 144° |
| 2026-05-08 07:37 | 48.62687 | 2.12304 | 35067 ft | 471 kts | 144° |
| 2026-05-08 07:38 | 48.57374 | 2.18052 | 35060 ft | 467 kts | 155° |
| 2026-05-08 07:38 | 48.51371 | 2.21285 | 35062 ft | 460 kts | 169° |
| 2026-05-08 07:39 | 48.45153 | 2.23617 | 35057 ft | 461 kts | 169° |
| 2026-05-08 07:39 | 48.38933 | 2.25978 | 35051 ft | 461 kts | 169° |
| 2026-05-08 07:40 | 48.32709 | 2.28341 | 35052 ft | 461 kts | 169° |
| 2026-05-08 07:40 | 48.26482 | 2.30702 | 35052 ft | 462 kts | 168° |
| 2026-05-08 07:41 | 48.20306 | 2.33142 | 35052 ft | 462 kts | 168° |
| 2026-05-08 07:41 | 48.14088 | 2.35655 | 35047 ft | 463 kts | 168° |
| 2026-05-08 07:42 | 48.07913 | 2.38435 | 35039 ft | 464 kts | 165° |
| 2026-05-08 07:42 | 48.01801 | 2.41599 | 35049 ft | 465 kts | 163° |
| 2026-05-08 07:43 | 47.95734 | 2.44747 | 35039 ft | 465 kts | 164° |
| 2026-05-08 07:43 | 47.89596 | 2.47812 | 35041 ft | 465 kts | 165° |
| 2026-05-08 07:44 | 47.83449 | 2.50817 | 35041 ft | 465 kts | 165° |
| 2026-05-08 07:44 | 47.77298 | 2.53826 | 35026 ft | 465 kts | 165° |
| 2026-05-08 07:45 | 47.72187 | 2.56335 | 35033 ft | 466 kts | 165° |
| 2026-05-08 07:45 | 47.65036 | 2.59853 | 35033 ft | 466 kts | 165° |
| 2026-05-08 07:46 | 47.58873 | 2.62870 | 35030 ft | 466 kts | 165° |
| 2026-05-08 07:46 | 47.53748 | 2.65370 | 35027 ft | 467 kts | 165° |
| 2026-05-08 07:47 | 47.47576 | 2.68368 | 35021 ft | 467 kts | 165° |
| 2026-05-08 07:47 | 47.40397 | 2.71841 | 35022 ft | 467 kts | 165° |
| 2026-05-08 07:48 | 47.34219 | 2.74838 | 35009 ft | 468 kts | 165° |
| 2026-05-08 07:48 | 47.29078 | 2.77323 | 35013 ft | 468 kts | 165° |
| 2026-05-08 07:49 | 47.22885 | 2.80305 | 35014 ft | 469 kts | 165° |
| 2026-05-08 07:49 | 47.16682 | 2.83289 | 35015 ft | 469 kts | 165° |
| 2026-05-08 07:50 | 47.10479 | 2.86259 | 35022 ft | 469 kts | 165° |
| 2026-05-08 07:50 | 47.04306 | 2.89204 | 35034 ft | 470 kts | 165° |
| 2026-05-08 07:51 | 46.98093 | 2.92162 | 35037 ft | 470 kts | 165° |
| 2026-05-08 07:51 | 46.91873 | 2.95122 | 35021 ft | 470 kts | 165° |
| 2026-05-08 07:52 | 46.85649 | 2.98087 | 35023 ft | 471 kts | 165° |
| 2026-05-08 07:52 | 46.79418 | 3.01040 | 35020 ft | 471 kts | 165° |
| 2026-05-08 07:53 | 46.73224 | 3.03964 | 35020 ft | 471 kts | 165° |
| 2026-05-08 07:53 | 46.66991 | 3.06904 | 35014 ft | 471 kts | 165° |
| 2026-05-08 07:54 | 46.60743 | 3.09842 | 35009 ft | 471 kts | 165° |
| 2026-05-08 07:54 | 46.54500 | 3.12768 | 35008 ft | 471 kts | 165° |
| 2026-05-08 07:55 | 46.48294 | 3.15908 | 35003 ft | 473 kts | 162° |
| 2026-05-08 07:55 | 46.42183 | 3.19295 | 35013 ft | 474 kts | 162° |
| 2026-05-08 07:56 | 46.36026 | 3.22706 | 35025 ft | 473 kts | 162° |
| 2026-05-08 07:56 | 46.29867 | 3.26027 | 35018 ft | 472 kts | 162° |
| 2026-05-08 07:57 | 46.23703 | 3.29308 | 35016 ft | 472 kts | 162° |
| 2026-05-08 07:57 | 46.17573 | 3.32552 | 35017 ft | 472 kts | 162° |
| 2026-05-08 07:58 | 46.11408 | 3.35826 | 35005 ft | 472 kts | 163° |
| 2026-05-08 07:58 | 46.05239 | 3.39102 | 35006 ft | 473 kts | 163° |
| 2026-05-08 07:59 | 45.99065 | 3.42386 | 35006 ft | 473 kts | 162° |
| 2026-05-08 07:59 | 45.92881 | 3.45660 | 35007 ft | 474 kts | 163° |
| 2026-05-08 08:00 | 45.86732 | 3.48896 | 34998 ft | 474 kts | 163° |
| 2026-05-08 08:00 | 45.80469 | 3.51864 | 35002 ft | 473 kts | 166° |
| 2026-05-08 08:01 | 45.74145 | 3.54467 | 35009 ft | 473 kts | 167° |
| 2026-05-08 08:01 | 45.67809 | 3.57050 | 34996 ft | 474 kts | 167° |
| 2026-05-08 08:02 | 45.61523 | 3.59734 | 35002 ft | 475 kts | 166° |
| 2026-05-08 08:02 | 45.55193 | 3.62487 | 35006 ft | 476 kts | 166° |
| 2026-05-08 08:03 | 45.48855 | 3.65214 | 35001 ft | 476 kts | 167° |
| 2026-05-08 08:03 | 45.42514 | 3.67902 | 35007 ft | 476 kts | 167° |
| 2026-05-08 08:04 | 45.36165 | 3.70584 | 35013 ft | 476 kts | 167° |
| 2026-05-08 08:04 | 45.29873 | 3.73530 | 34994 ft | 480 kts | 158° |
| 2026-05-08 08:04 | 45.27005 | 3.75868 | 35015 ft | 485 kts | 147° |
| 2026-05-08 08:05 | 45.24422 | 3.78963 | 35023 ft | 488 kts | 136° |
| 2026-05-08 08:05 | 45.22259 | 3.82683 | 35025 ft | 491 kts | 125° |
| 2026-05-08 08:05 | 45.20407 | 3.86755 | 35036 ft | 491 kts | 124° |
| 2026-05-08 08:06 | 45.16705 | 3.94894 | 35046 ft | 491 kts | 124° |
| 2026-05-08 08:06 | 45.12989 | 4.02997 | 35048 ft | 490 kts | 124° |
| 2026-05-08 08:07 | 45.09303 | 4.11041 | 35029 ft | 490 kts | 124° |
| 2026-05-08 08:07 | 45.05586 | 4.19137 | 35026 ft | 491 kts | 124° |
| 2026-05-08 08:08 | 45.01512 | 4.26820 | 35040 ft | 487 kts | 135° |
| 2026-05-08 08:08 | 44.96933 | 4.33851 | 35042 ft | 486 kts | 135° |
| 2026-05-08 08:09 | 44.92360 | 4.40863 | 35039 ft | 485 kts | 135° |
| 2026-05-08 08:09 | 44.87820 | 4.47819 | 35021 ft | 485 kts | 135° |
| 2026-05-08 08:10 | 44.83247 | 4.54813 | 35015 ft | 486 kts | 135° |
| 2026-05-08 08:10 | 44.78660 | 4.61815 | 35032 ft | 486 kts | 136° |
| 2026-05-08 08:11 | 44.74076 | 4.68785 | 35046 ft | 485 kts | 136° |
| 2026-05-08 08:11 | 44.69521 | 4.75688 | 35053 ft | 484 kts | 136° |
| 2026-05-08 08:12 | 44.64936 | 4.82615 | 35046 ft | 484 kts | 136° |
| 2026-05-08 08:12 | 44.60404 | 4.89606 | 35038 ft | 485 kts | 134° |
| 2026-05-08 08:13 | 44.55982 | 4.96757 | 35042 ft | 485 kts | 134° |
| 2026-05-08 08:13 | 44.51577 | 5.03892 | 35051 ft | 483 kts | 134° |
| 2026-05-08 08:14 | 44.47161 | 5.10942 | 34219 ft | 491 kts | 135° |
| 2026-05-08 08:14 | 44.44886 | 5.14536 | 33386 ft | 492 kts | 135° |
| 2026-05-08 08:14 | 44.42639 | 5.18089 | 32833 ft | 483 kts | 135° |
| 2026-05-08 08:14 | 44.40423 | 5.21589 | 32242 ft | 478 kts | 135° |
| 2026-05-08 08:15 | 44.38224 | 5.25049 | 32010 ft | 474 kts | 137° |
| 2026-05-08 08:15 | 44.33249 | 5.30937 | 32036 ft | 468 kts | 146° |
| 2026-05-08 08:15 | 44.30678 | 5.33740 | 31489 ft | 471 kts | 146° |
| 2026-05-08 08:16 | 44.28125 | 5.36528 | 30622 ft | 471 kts | 146° |
| 2026-05-08 08:16 | 44.25566 | 5.39329 | 29941 ft | 465 kts | 146° |
| 2026-05-08 08:16 | 44.23031 | 5.42096 | 29032 ft | 462 kts | 146° |
| 2026-05-08 08:16 | 44.20494 | 5.44853 | 28539 ft | 464 kts | 146° |
| 2026-05-08 08:17 | 44.17940 | 5.47618 | 28008 ft | 466 kts | 145° |
| 2026-05-08 08:17 | 44.15375 | 5.50391 | 27490 ft | 467 kts | 145° |
| 2026-05-08 08:17 | 44.12810 | 5.53166 | 26966 ft | 465 kts | 145° |
| 2026-05-08 08:17 | 44.10265 | 5.55925 | 26445 ft | 463 kts | 144° |
| 2026-05-08 08:18 | 44.07735 | 5.58668 | 25931 ft | 459 kts | 145° |
| 2026-05-08 08:18 | 44.05259 | 5.61347 | 25421 ft | 455 kts | 144° |
| 2026-05-08 08:18 | 44.02769 | 5.64035 | 24912 ft | 452 kts | 144° |
| 2026-05-08 08:18 | 44.00292 | 5.66702 | 24409 ft | 449 kts | 144° |
| 2026-05-08 08:19 | 43.97834 | 5.69345 | 23909 ft | 446 kts | 144° |
| 2026-05-08 08:19 | 43.95391 | 5.71969 | 23358 ft | 442 kts | 145° |
| 2026-05-08 08:19 | 43.92966 | 5.74574 | 22881 ft | 440 kts | 145° |
| 2026-05-08 08:19 | 43.90553 | 5.77164 | 22371 ft | 437 kts | 145° |
| 2026-05-08 08:20 | 43.88156 | 5.79732 | 21877 ft | 434 kts | 145° |
| 2026-05-08 08:20 | 43.85774 | 5.82280 | 21400 ft | 431 kts | 144° |
| 2026-05-08 08:20 | 43.83438 | 5.84776 | 20922 ft | 429 kts | 144° |
| 2026-05-08 08:20 | 43.81082 | 5.87293 | 20443 ft | 426 kts | 144° |
| 2026-05-08 08:21 | 43.78740 | 5.89790 | 19962 ft | 424 kts | 144° |
| 2026-05-08 08:21 | 43.76413 | 5.92266 | 19490 ft | 421 kts | 144° |
| 2026-05-08 08:21 | 43.74097 | 5.94726 | 19016 ft | 419 kts | 144° |
| 2026-05-08 08:21 | 43.71794 | 5.97171 | 18546 ft | 416 kts | 144° |
| 2026-05-08 08:22 | 43.69501 | 5.99600 | 18041 ft | 414 kts | 144° |
| 2026-05-08 08:22 | 43.67223 | 6.02015 | 17569 ft | 411 kts | 144° |
| 2026-05-08 08:22 | 43.64959 | 6.04411 | 17109 ft | 410 kts | 143° |
| 2026-05-08 08:22 | 43.62733 | 6.06766 | 16657 ft | 407 kts | 143° |
| 2026-05-08 08:23 | 43.60597 | 6.09315 | 16200 ft | 405 kts | 133° |
| 2026-05-08 08:23 | 43.59007 | 6.12506 | 16002 ft | 405 kts | 117° |
| 2026-05-08 08:23 | 43.57950 | 6.16108 | 16036 ft | 406 kts | 111° |
| 2026-05-08 08:23 | 43.56950 | 6.19743 | 16033 ft | 406 kts | 111° |
| 2026-05-08 08:24 | 43.55944 | 6.23389 | 16034 ft | 407 kts | 111° |
| 2026-05-08 08:24 | 43.54935 | 6.27037 | 15803 ft | 407 kts | 111° |
| 2026-05-08 08:24 | 43.53918 | 6.30712 | 15037 ft | 410 kts | 111° |
| 2026-05-08 08:24 | 43.52914 | 6.34336 | 14669 ft | 402 kts | 111° |
| 2026-05-08 08:25 | 43.51933 | 6.37867 | 14145 ft | 398 kts | 111° |
| 2026-05-08 08:25 | 43.50942 | 6.41403 | 13596 ft | 394 kts | 113° |
| 2026-05-08 08:25 | 43.49553 | 6.44604 | 13010 ft | 388 kts | 130° |
| 2026-05-08 08:25 | 43.47740 | 6.47312 | 12437 ft | 383 kts | 134° |
| 2026-05-08 08:26 | 43.45913 | 6.49954 | 11883 ft | 378 kts | 134° |
| 2026-05-08 08:26 | 43.44104 | 6.52547 | 11329 ft | 374 kts | 134° |
| 2026-05-08 08:26 | 43.42310 | 6.55110 | 10785 ft | 370 kts | 134° |
| 2026-05-08 08:26 | 43.40568 | 6.57677 | 10253 ft | 366 kts | 128° |
| 2026-05-08 08:27 | 43.39420 | 6.60743 | 9702 ft | 360 kts | 105° |
| 2026-05-08 08:27 | 43.39246 | 6.64072 | 9158 ft | 353 kts | 82° |
| 2026-05-08 08:27 | 43.39836 | 6.67301 | 8694 ft | 344 kts | 74° |
| 2026-05-08 08:27 | 43.40503 | 6.70420 | 8218 ft | 337 kts | 74° |
| 2026-05-08 08:28 | 43.41161 | 6.73480 | 7776 ft | 330 kts | 74° |
| 2026-05-08 08:28 | 43.41800 | 6.76476 | 7327 ft | 323 kts | 74° |
| 2026-05-08 08:28 | 43.42425 | 6.79419 | 6887 ft | 319 kts | 75° |
| 2026-05-08 08:28 | 43.43042 | 6.82329 | 6444 ft | 315 kts | 75° |
| 2026-05-08 08:29 | 43.43649 | 6.85205 | 5979 ft | 310 kts | 74° |
| 2026-05-08 08:29 | 43.44244 | 6.88040 | 5518 ft | 307 kts | 74° |
| 2026-05-08 08:29 | 43.44829 | 6.90846 | 5067 ft | 304 kts | 74° |
| 2026-05-08 08:29 | 43.45617 | 6.93453 | 4605 ft | 297 kts | 55° |
| 2026-05-08 08:30 | 43.46980 | 6.95506 | 4153 ft | 283 kts | 46° |
| 2026-05-08 08:30 | 43.48325 | 6.97343 | 3995 ft | 262 kts | 46° |
| 2026-05-08 08:30 | 43.50652 | 7.00506 | 3924 ft | 214 kts | 46° |
| 2026-05-08 08:31 | 43.51679 | 7.01909 | 3710 ft | 204 kts | 47° |
| 2026-05-08 08:31 | 43.52671 | 7.03264 | 3459 ft | 197 kts | 47° |
| 2026-05-08 08:31 | 43.53628 | 7.04572 | 3203 ft | 191 kts | 47° |
| 2026-05-08 08:31 | 43.54558 | 7.05843 | 2970 ft | 185 kts | 47° |
| 2026-05-08 08:32 | 43.55464 | 7.07083 | 2725 ft | 187 kts | 46° |
| 2026-05-08 08:32 | 43.56380 | 7.08335 | 2458 ft | 184 kts | 46° |
| 2026-05-08 08:32 | 43.57290 | 7.09580 | 2216 ft | 185 kts | 46° |
| 2026-05-08 08:32 | 43.58209 | 7.10840 | 1967 ft | 186 kts | 45° |
| 2026-05-08 08:33 | 43.59128 | 7.12097 | 1714 ft | 185 kts | 45° |
| 2026-05-08 08:33 | 43.60038 | 7.13344 | 1458 ft | 183 kts | 45° |
| 2026-05-08 08:33 | 43.60925 | 7.14561 | 1238 ft | 176 kts | 43° |
| 2026-05-08 08:33 | 43.61768 | 7.15717 | 1010 ft | 169 kts | 43° |
| 2026-05-08 08:34 | 43.62589 | 7.16844 | 785 ft | 165 kts | 43° |
| 2026-05-08 08:34 | 43.63398 | 7.17954 | 568 ft | 164 kts | 43° |
| 2026-05-08 08:34 | 43.64191 | 7.19042 | 368 ft | 162 kts | 43° |
| 2026-05-08 08:34 | 43.64990 | 7.20146 | 135 ft | 161 kts | 43° |
| 2026-05-08 08:35 | 43.65745 | 7.21186 | 43 ft | 141 kts | 43° |
| 2026-05-08 08:35 | 43.66494 | 7.22211 | 297 ft | 170 kts | 42° |
| 2026-05-08 08:35 | 43.67362 | 7.23348 | 819 ft | 195 kts | 41° |
| 2026-05-08 08:35 | 43.68365 | 7.24668 | 1550 ft | 201 kts | 41° |
| 2026-05-08 08:36 | 43.69402 | 7.26018 | 2215 ft | 209 kts | 43° |
| 2026-05-08 08:36 | 43.70484 | 7.27422 | 2844 ft | 215 kts | 43° |
| 2026-05-08 08:36 | 43.71569 | 7.28828 | 3439 ft | 213 kts | 44° |
| 2026-05-08 08:36 | 43.72655 | 7.30231 | 3910 ft | 216 kts | 44° |
| 2026-05-08 08:37 | 43.73762 | 7.31629 | 3999 ft | 215 kts | 44° |
| 2026-05-08 08:37 | 43.74758 | 7.33098 | 3996 ft | 212 kts | 61° |
| 2026-05-08 08:37 | 43.75069 | 7.35056 | 4001 ft | 211 kts | 96° |
| 2026-05-08 08:37 | 43.74619 | 7.36984 | 4004 ft | 212 kts | 117° |
| 2026-05-08 08:38 | 43.73693 | 7.38574 | 4020 ft | 213 kts | 132° |
| 2026-05-08 08:38 | 43.72648 | 7.40071 | 4009 ft | 223 kts | 133° |
| 2026-05-08 08:38 | 43.71520 | 7.41672 | 3999 ft | 237 kts | 133° |
| 2026-05-08 08:38 | 43.70360 | 7.43322 | 4011 ft | 240 kts | 133° |
| 2026-05-08 08:39 | 43.69172 | 7.44952 | 4004 ft | 241 kts | 139° |
| 2026-05-08 08:39 | 43.67611 | 7.45915 | 4007 ft | 259 kts | 170° |
| 2026-05-08 08:39 | 43.65828 | 7.45697 | 4012 ft | 266 kts | 198° |
| 2026-05-08 08:39 | 43.64182 | 7.44516 | 4009 ft | 265 kts | 210° |
| 2026-05-08 08:40 | 43.62671 | 7.43221 | 3999 ft | 246 kts | 211° |
| 2026-05-08 08:40 | 43.61298 | 7.41965 | 4007 ft | 229 kts | 218° |
| 2026-05-08 08:40 | 43.60149 | 7.40537 | 4010 ft | 219 kts | 223° |
| 2026-05-08 08:40 | 43.58918 | 7.39333 | 4007 ft | 217 kts | 205° |
| 2026-05-08 08:41 | 43.57570 | 7.38391 | 4003 ft | 217 kts | 204° |
| 2026-05-08 08:41 | 43.56211 | 7.37476 | 4003 ft | 217 kts | 203° |
| 2026-05-08 08:41 | 43.54870 | 7.36579 | 3999 ft | 217 kts | 203° |
| 2026-05-08 08:41 | 43.53508 | 7.35671 | 4004 ft | 217 kts | 203° |
| 2026-05-08 08:42 | 43.52148 | 7.34761 | 4001 ft | 218 kts | 205° |
| 2026-05-08 08:42 | 43.50931 | 7.33509 | 4011 ft | 220 kts | 221° |
| 2026-05-08 08:42 | 43.49831 | 7.32040 | 4009 ft | 220 kts | 223° |
| 2026-05-08 08:42 | 43.48746 | 7.30548 | 4004 ft | 220 kts | 223° |
| 2026-05-08 08:43 | 43.47666 | 7.29054 | 4012 ft | 220 kts | 223° |
| 2026-05-08 08:43 | 43.46585 | 7.27556 | 4011 ft | 221 kts | 223° |
| 2026-05-08 08:43 | 43.45506 | 7.26060 | 4008 ft | 220 kts | 223° |
| 2026-05-08 08:43 | 43.44426 | 7.24561 | 4006 ft | 221 kts | 223° |
| 2026-05-08 08:44 | 43.43361 | 7.23081 | 4008 ft | 221 kts | 223° |
| 2026-05-08 08:44 | 43.42282 | 7.21581 | 4012 ft | 220 kts | 223° |
| 2026-05-08 08:44 | 43.41205 | 7.20083 | 4006 ft | 220 kts | 223° |
| 2026-05-08 08:44 | 43.40127 | 7.18589 | 3960 ft | 219 kts | 224° |
| 2026-05-08 08:45 | 43.39261 | 7.16891 | 3641 ft | 219 kts | 250° |
| 2026-05-08 08:45 | 43.39093 | 7.14830 | 3322 ft | 218 kts | 280° |
| 2026-05-08 08:45 | 43.39668 | 7.12944 | 3045 ft | 213 kts | 311° |
| 2026-05-08 08:45 | 43.40757 | 7.11585 | 3013 ft | 214 kts | 324° |
| 2026-05-08 08:46 | 43.41918 | 7.10288 | 3009 ft | 216 kts | 323° |
| 2026-05-08 08:46 | 43.43084 | 7.08977 | 3011 ft | 217 kts | 323° |
| 2026-05-08 08:46 | 43.44236 | 7.07677 | 3010 ft | 217 kts | 322° |
| 2026-05-08 08:46 | 43.45400 | 7.06361 | 3009 ft | 217 kts | 322° |
| 2026-05-08 08:47 | 43.46581 | 7.05027 | 3011 ft | 225 kts | 322° |
| 2026-05-08 08:47 | 43.47811 | 7.03676 | 3006 ft | 226 kts | 328° |
| 2026-05-08 08:47 | 43.49227 | 7.02790 | 3008 ft | 223 kts | 349° |
| 2026-05-08 08:47 | 43.50760 | 7.02624 | 3009 ft | 220 kts | 8° |
| 2026-05-08 08:48 | 43.52221 | 7.03169 | 3004 ft | 213 kts | 28° |
| 2026-05-08 08:48 | 43.53395 | 7.04260 | 3002 ft | 197 kts | 46° |
| 2026-05-08 08:48 | 43.54335 | 7.05543 | 2933 ft | 186 kts | 47° |
| 2026-05-08 08:48 | 43.55249 | 7.06791 | 2740 ft | 185 kts | 47° |
| 2026-05-08 08:49 | 43.56162 | 7.08039 | 2510 ft | 184 kts | 46° |
| 2026-05-08 08:49 | 43.57072 | 7.09283 | 2316 ft | 184 kts | 46° |
| 2026-05-08 08:49 | 43.57986 | 7.10535 | 2033 ft | 190 kts | 46° |
| 2026-05-08 08:49 | 43.58922 | 7.11816 | 1764 ft | 189 kts | 45° |
| 2026-05-08 08:50 | 43.59838 | 7.13071 | 1509 ft | 180 kts | 45° |
| 2026-05-08 08:50 | 43.60699 | 7.14251 | 1281 ft | 170 kts | 45° |
| 2026-05-08 08:50 | 43.61525 | 7.15384 | 1078 ft | 166 kts | 43° |
| 2026-05-08 08:50 | 43.62344 | 7.16507 | 848 ft | 172 kts | 43° |
| 2026-05-08 08:51 | 43.63170 | 7.17642 | 623 ft | 162 kts | 43° |
| 2026-05-08 08:51 | 43.63937 | 7.18696 | 415 ft | 153 kts | 43° |
| 2026-05-08 08:51 | 43.64670 | 7.19714 | 226 ft | 148 kts | 43° |
| 2026-05-08 08:51 | 43.65388 | 7.20696 | 42 ft | 144 kts | 41° |
| 2026-05-08 08:52 | 43.66017 | 7.21552 | 21 ft | 106 kts | 44° |
| 2026-05-08 08:52 | 43.66418 | 7.22105 | 23 ft | 55 kts | 45° |
| 2026-05-08 08:52 | 43.66615 | 7.22376 | 21 ft | 32 kts | 45° |
| 2026-05-08 08:52 | 43.66739 | 7.22492 | 21 ft | 19 kts | 347° |
| 2026-05-08 08:53 | 43.66815 | 7.22391 | 22 ft | 11 kts | 301° |
| 2026-05-08 08:53 | 43.66802 | 7.22315 | 23 ft | 2 kts | 218° |
| 2026-05-08 08:53 | 43.66789 | 7.22298 | 22 ft | 4 kts | 226° |
| 2026-05-08 08:53 | 43.66760 | 7.22256 | 24 ft | 8 kts | 226° |
| 2026-05-08 08:54 | 43.66710 | 7.22188 | 22 ft | 12 kts | 225° |
| 2026-05-08 08:54 | 43.66641 | 7.22094 | 22 ft | 16 kts | 224° |
| 2026-05-08 08:54 | 43.66556 | 7.21975 | 22 ft | 19 kts | 225° |
| 2026-05-08 08:54 | 43.66454 | 7.21836 | 22 ft | 21 kts | 224° |
| 2026-05-08 08:55 | 43.66347 | 7.21690 | 22 ft | 21 kts | 224° |
| 2026-05-08 08:55 | 43.66233 | 7.21534 | 22 ft | 25 kts | 226° |
| 2026-05-08 08:55 | 43.66105 | 7.21357 | 22 ft | 28 kts | 225° |
| 2026-05-08 08:55 | 43.65973 | 7.21176 | 22 ft | 24 kts | 224° |
| 2026-05-08 08:56 | 43.65864 | 7.21030 | 22 ft | 23 kts | 226° |
| 2026-05-08 08:56 | 43.65795 | 7.20907 | 22 ft | 14 kts | 271° |
| 2026-05-08 08:56 | 43.65879 | 7.20846 | 22 ft | 17 kts | 352° |
| 2026-05-08 08:56 | 43.66005 | 7.20819 | 24 ft | 20 kts | 351° |
| 2026-05-08 08:57 | 43.66120 | 7.20795 | 22 ft | 9 kts | 349° |
| 2026-05-08 08:57 | 43.66125 | 7.20794 | 23 ft | 1 kts | 349° |
| 2026-05-08 08:57 | 43.66130 | 7.20764 | 22 ft | 7 kts | 269° |
| 2026-05-08 08:57 | 43.66124 | 7.20724 | 22 ft | 3 kts | 261° |
| 2026-05-08 08:58 | 43.66120 | 7.20695 | 22 ft | 1 kts | 261° |
| 2026-05-08 08:58 | 43.66119 | 7.20687 | 22 ft | 0 kts | 261° |